Time;durP1;ratioP1;P1;durP2;ratioP2;P2;SDS_P1;SDS_P2;PMS_P1;PMS_P2;Temp;Humidity;BMP_temperature;BMP_pressure;BME280_temperature;BME280_humidity;BME280_pressure;Samples;Min_cycle;Max_cycle;Signal;HPM_P1;HPM_P2
2022/01/29 00:02:21;;;;;;;65.40;40.40;;;6.40;99.90;;;;;;5096693;28;20051;-72
2022/01/29 00:04:47;;;;;;;64.15;39.90;;;6.40;99.90;;;;;;5096986;28;20514;-73
2022/01/29 00:07:14;;;;;;;64.25;39.88;;;6.40;99.90;;;;;;5096835;28;20048;-73
2022/01/29 00:09:40;;;;;;;65.50;41.53;;;6.40;99.90;;;;;;5096821;28;20050;-72
2022/01/29 00:12:06;;;;;;;64.43;41.20;;;6.40;99.90;;;;;;5095750;28;20122;-73
2022/01/29 00:14:31;;;;;;;63.00;41.08;;;6.40;99.90;;;;;;5095459;28;20048;-73
2022/01/29 00:16:57;;;;;;;62.95;40.00;;;6.40;99.90;;;;;;5096685;28;20039;-72
2022/01/29 00:19:22;;;;;;;68.95;42.38;;;6.40;99.90;;;;;;5096428;28;20036;-73
2022/01/29 00:21:48;;;;;;;68.53;42.33;;;6.50;99.90;;;;;;5096666;28;20146;-72
2022/01/29 00:24:14;;;;;;;62.47;40.42;;;6.50;99.90;;;;;;5096497;28;20044;-73
2022/01/29 00:26:39;;;;;;;69.53;42.50;;;6.40;99.90;;;;;;5096241;28;20063;-73
2022/01/29 00:29:14;;;;;;;69.25;43.50;;;6.50;99.90;;;;;;5096947;28;20052;-74
2022/01/29 00:31:40;;;;;;;59.42;40.50;;;6.50;99.90;;;;;;5094443;28;20040;-73
2022/01/29 00:34:06;;;;;;;63.88;42.88;;;6.50;99.90;;;;;;5078655;28;20180;-72
2022/01/29 00:36:34;;;;;;;70.07;42.80;;;6.50;99.90;;;;;;5095923;28;20043;-73
2022/01/29 00:38:59;;;;;;;69.97;40.92;;;6.50;99.90;;;;;;5096147;28;20040;-72
2022/01/29 00:41:25;;;;;;;62.00;42.03;;;6.50;99.90;;;;;;5096145;28;20137;-72
2022/01/29 00:43:51;;;;;;;73.32;41.78;;;6.50;99.90;;;;;;5096127;28;20132;-73
2022/01/29 00:46:16;;;;;;;65.28;41.13;;;6.50;99.90;;;;;;5096128;28;20194;-73
2022/01/29 00:48:42;;;;;;;65.15;41.83;;;6.50;99.90;;;;;;5095992;28;20055;-72
2022/01/29 00:51:07;;;;;;;67.30;41.47;;;6.50;99.90;;;;;;5096039;28;20036;-72
2022/01/29 00:53:33;;;;;;;61.15;41.03;;;6.50;99.90;;;;;;5096095;28;20040;-73
2022/01/29 00:55:59;;;;;;;63.22;40.40;;;6.60;99.90;;;;;;5095568;28;20119;-73
2022/01/29 00:58:24;;;;;;;66.13;41.60;;;6.50;99.90;;;;;;5095538;28;20055;-73
2022/01/29 01:00:50;;;;;;;67.60;42.60;;;6.50;99.90;;;;;;5094214;28;20052;-74
2022/01/29 01:03:15;;;;;;;66.70;43.53;;;6.50;99.90;;;;;;5095701;28;20044;-74
2022/01/29 01:05:41;;;;;;;66.85;42.70;;;6.50;99.90;;;;;;5095691;28;20104;-72
2022/01/29 01:08:08;;;;;;;76.93;45.75;;;6.50;99.90;;;;;;5095637;28;20048;-72
2022/01/29 01:10:34;;;;;;;;;;;6.50;99.90;;;;;;5095992;28;20393;-71
2022/01/29 01:12:59;;;;;;;69.13;40.33;;;6.50;99.90;;;;;;5095623;28;19927;-71
2022/01/29 01:15:25;;;;;;;80.22;43.78;;;6.40;99.90;;;;;;5095913;28;20044;-71
2022/01/29 01:17:51;;;;;;;74.65;43.90;;;6.40;99.90;;;;;;5095489;28;20040;-74
2022/01/29 01:20:16;;;;;;;78.43;46.33;;;6.40;99.90;;;;;;5095355;28;20499;-74
2022/01/29 01:22:42;;;;;;;75.05;44.92;;;6.40;99.90;;;;;;5095498;28;20079;-74
2022/01/29 01:25:08;;;;;;;72.57;41.88;;;6.40;99.90;;;;;;5095367;28;20040;-72
2022/01/29 01:27:34;;;;;;;77.40;44.58;;;6.40;99.90;;;;;;5095232;28;20040;-72
2022/01/29 01:29:59;;;;;;;72.90;43.95;;;6.40;99.90;;;;;;5094072;28;20047;-72
2022/01/29 01:32:25;;;;;;;77.13;46.25;;;6.40;99.90;;;;;;5095197;28;20392;-73
2022/01/29 01:34:54;;;;;;;83.03;46.55;;;6.30;99.90;;;;;;5095184;28;20125;-72
2022/01/29 01:37:33;;;;;;;74.18;45.72;;;6.30;99.90;;;;;;5095122;28;20046;-72
2022/01/29 01:39:59;;;;;;;78.57;44.60;;;6.30;99.90;;;;;;5094936;28;20036;-71
2022/01/29 01:42:25;;;;;;;78.20;48.13;;;6.30;99.90;;;;;;5095025;28;20376;-71
2022/01/29 01:44:52;;;;;;;82.40;47.60;;;6.30;99.90;;;;;;5094214;28;20044;-72
2022/01/29 01:47:18;;;;;;;78.22;48.20;;;6.30;99.90;;;;;;5094870;28;20044;-71
2022/01/29 01:49:44;;;;;;;84.00;47.38;;;6.30;99.90;;;;;;5094924;28;20042;-72
2022/01/29 01:52:11;;;;;;;85.82;48.50;;;6.30;99.90;;;;;;5094842;28;20126;-71
2022/01/29 01:54:38;;;;;;;92.63;47.58;;;6.30;99.90;;;;;;5093521;28;20056;-71
2022/01/29 01:57:04;;;;;;;80.47;46.25;;;6.30;99.90;;;;;;5095008;28;20076;-72
2022/01/29 01:59:31;;;;;;;86.10;46.72;;;6.30;99.90;;;;;;5094425;28;20487;-72
2022/01/29 02:01:56;;;;;;;76.40;44.20;;;6.30;99.90;;;;;;5093507;28;20048;-71
2022/01/29 02:04:22;;;;;;;89.50;46.95;;;6.30;99.90;;;;;;5094794;28;20174;-72
2022/01/29 02:06:51;;;;;;;76.63;44.78;;;6.30;99.90;;;;;;5094594;28;20048;-72
2022/01/29 02:09:20;;;;;;;75.65;43.15;;;6.30;99.90;;;;;;5094440;28;20043;-72
2022/01/29 02:12:04;;;;;;;79.43;44.10;;;6.30;99.90;;;;;;5094410;28;20090;-72
2022/01/29 02:14:32;;;;;;;77.47;44.20;;;6.30;99.90;;;;;;5094774;28;20131;-71
2022/01/29 02:17:00;;;;;;;82.38;43.28;;;6.30;99.90;;;;;;5094266;28;20084;-72
2022/01/29 02:19:26;;;;;;;74.93;42.65;;;6.30;99.90;;;;;;5094215;28;20047;-72
2022/01/29 02:21:53;;;;;;;80.73;42.73;;;6.40;99.90;;;;;;5094039;28;20036;-71
2022/01/29 02:24:18;;;;;;;;;;;6.40;99.90;;;;;;5095063;28;20285;-72
2022/01/29 02:26:44;;;;;;;75.38;39.08;;;6.40;99.90;;;;;;5094227;28;19927;-72
2022/01/29 02:29:10;;;;;;;69.80;38.80;;;6.40;99.90;;;;;;5094139;28;20067;-72
2022/01/29 02:31:43;;;;;;;73.60;40.28;;;6.40;99.90;;;;;;5093785;28;20496;-71
2022/01/29 02:34:09;;;;;;;72.15;39.78;;;6.40;99.90;;;;;;5094054;28;20392;-71
2022/01/29 02:36:35;;;;;;;70.40;39.30;;;6.40;99.90;;;;;;5094551;28;20036;-71
2022/01/29 02:39:00;;;;;;;67.85;38.40;;;6.40;99.90;;;;;;5094055;28;20430;-72
2022/01/29 02:41:28;;;;;;;67.15;38.40;;;6.40;99.90;;;;;;5093971;28;20417;-72
2022/01/29 02:43:56;;;;;;;64.13;36.33;;;6.40;99.90;;;;;;5094221;28;20104;-71
2022/01/29 02:46:30;;;;;;;63.45;37.58;;;6.50;99.90;;;;;;5093965;28;20044;-71
2022/01/29 02:48:59;;;;;;;59.58;34.20;;;6.50;99.90;;;;;;5093858;28;20476;-71
2022/01/29 02:51:25;;;;;;;68.45;38.13;;;6.50;99.90;;;;;;5094109;28;20424;-72
2022/01/29 02:53:51;;;;;;;61.25;34.58;;;6.50;99.90;;;;;;5093772;28;20136;-72
2022/01/29 02:56:17;;;;;;;73.05;39.08;;;6.50;99.90;;;;;;5093584;28;20044;-72
2022/01/29 02:58:43;;;;;;;64.57;37.20;;;6.50;99.90;;;;;;5092684;28;20047;-72
2022/01/29 03:01:09;;;;;;;65.60;37.78;;;6.50;99.90;;;;;;5093722;28;20094;-71
2022/01/29 03:03:34;;;;;;;69.25;36.42;;;6.60;99.90;;;;;;5093781;28;20427;-72
2022/01/29 03:06:03;;;;;;;68.55;35.45;;;6.60;99.90;;;;;;5093456;28;20040;-72
2022/01/29 03:08:29;;;;;;;61.50;34.63;;;6.60;99.90;;;;;;5094207;28;20434;-74
2022/01/29 03:10:54;;;;;;;68.45;34.72;;;6.60;99.90;;;;;;5093643;28;20036;-72
2022/01/29 03:13:20;;;;;;;66.20;36.28;;;6.70;99.90;;;;;;5093826;28;20083;-73
2022/01/29 03:15:45;;;;;;;66.70;36.97;;;6.60;99.90;;;;;;5093549;28;20055;-72
2022/01/29 03:18:11;;;;;;;69.93;36.75;;;6.60;99.90;;;;;;5093595;28;20040;-72
2022/01/29 03:20:36;;;;;;;67.28;35.10;;;6.60;99.90;;;;;;5093433;28;20097;-72
2022/01/29 03:23:02;;;;;;;62.45;35.75;;;6.60;99.90;;;;;;5092654;28;20097;-71
2022/01/29 03:25:28;;;;;;;66.88;35.22;;;6.70;99.90;;;;;;5092995;28;20548;-75
2022/01/29 03:27:53;;;;;;;64.47;35.80;;;6.70;99.90;;;;;;5093526;28;20042;-74
2022/01/29 03:30:19;;;;;;;62.33;35.60;;;6.70;99.90;;;;;;5093500;28;20093;-72
2022/01/29 03:32:45;;;;;;;61.70;35.45;;;6.70;99.90;;;;;;5093380;28;20052;-72
2022/01/29 03:35:12;;;;;;;55.33;31.45;;;7.00;99.90;;;;;;5093233;28;20116;-72
2022/01/29 03:37:38;;;;;;;;;;;6.80;99.90;;;;;;5094257;28;20058;-72
2022/01/29 03:40:06;;;;;;;60.05;33.00;;;6.80;99.90;;;;;;5093304;28;20423;-73
2022/01/29 03:42:37;;;;;;;59.03;32.92;;;6.80;99.90;;;;;;5093567;28;20501;-72
2022/01/29 03:45:06;;;;;;;62.40;31.63;;;6.80;99.90;;;;;;5093273;28;20487;-72
2022/01/29 03:47:32;;;;;;;68.97;33.83;;;6.80;99.90;;;;;;5093296;28;20056;-72
2022/01/29 03:49:57;;;;;;;63.25;35.20;;;6.80;99.90;;;;;;5093278;28;20048;-72
2022/01/29 03:52:23;;;;;;;70.90;34.15;;;6.80;99.90;;;;;;5093660;28;20104;-72
2022/01/29 03:54:48;;;;;;;63.88;34.60;;;6.80;99.90;;;;;;5093292;28;20081;-72
2022/01/29 03:57:14;;;;;;;66.38;35.45;;;6.90;99.90;;;;;;5093346;28;20040;-72
2022/01/29 03:59:40;;;;;;;70.10;34.25;;;6.90;99.90;;;;;;5092841;28;20141;-73
2022/01/29 04:02:05;;;;;;;68.00;35.85;;;6.90;99.90;;;;;;5093153;28;20044;-72
2022/01/29 04:04:31;;;;;;;72.82;37.00;;;6.90;99.90;;;;;;5093173;28;20051;-73
2022/01/29 04:07:01;;;;;;;66.55;35.60;;;6.90;99.90;;;;;;5093693;28;20093;-72
2022/01/29 04:09:28;;;;;;;61.78;35.35;;;6.90;99.90;;;;;;5096799;28;20087;-73
2022/01/29 04:11:53;;;;;;;74.68;36.92;;;6.90;99.90;;;;;;5096788;28;20044;-72
2022/01/29 04:14:20;;;;;;;71.05;36.85;;;6.90;99.90;;;;;;5096607;28;20050;-72
2022/01/29 04:16:45;;;;;;;61.40;34.25;;;6.90;99.90;;;;;;5096560;28;20055;-72
2022/01/29 04:19:11;;;;;;;78.32;37.38;;;6.90;99.90;;;;;;5097044;28;20047;-72
2022/01/29 04:21:37;;;;;;;72.63;37.00;;;6.90;99.90;;;;;;5096699;28;20484;-72
2022/01/29 04:24:04;;;;;;;76.53;38.57;;;6.90;99.90;;;;;;5096568;28;20499;-72
2022/01/29 04:26:34;;;;;;;81.53;39.83;;;6.90;99.90;;;;;;5096371;28;20301;-72
2022/01/29 04:29:05;;;;;;;68.28;36.40;;;6.90;99.90;;;;;;5096297;28;20048;-72
2022/01/29 04:31:40;;;;;;;77.53;39.67;;;7.00;99.90;;;;;;5096381;28;20048;-72
2022/01/29 04:34:05;;;;;;;75.10;38.10;;;7.00;99.90;;;;;;5096700;28;20606;-72
2022/01/29 04:36:31;;;;;;;77.38;38.97;;;7.00;99.90;;;;;;5096314;28;20123;-72
2022/01/29 04:38:56;;;;;;;74.35;37.95;;;7.00;99.90;;;;;;5095309;28;20139;-72
2022/01/29 04:41:22;;;;;;;85.20;41.13;;;7.00;99.90;;;;;;5096168;28;20381;-72
2022/01/29 04:43:48;;;;;;;69.05;35.15;;;7.00;99.90;;;;;;5095232;28;20437;-72
2022/01/29 04:46:14;;;;;;;76.25;37.90;;;7.00;99.90;;;;;;5096146;28;20040;-73
2022/01/29 04:48:40;;;;;;;90.03;41.60;;;7.00;99.90;;;;;;5096126;28;20534;-72
2022/01/29 04:51:06;;;;;;;77.07;36.80;;;7.00;99.90;;;;;;5096095;28;20473;-72
2022/01/29 04:53:31;;;;;;;70.40;35.50;;;7.10;99.90;;;;;;5096027;28;20102;-72
2022/01/29 04:55:57;;;;;;;70.38;37.53;;;7.10;99.90;;;;;;5095967;28;20079;-72
2022/01/29 04:58:23;;;;;;;64.15;35.67;;;7.10;99.90;;;;;;5095588;28;20080;-72
2022/01/29 05:00:48;;;;;;;72.65;36.70;;;7.10;99.90;;;;;;5094191;28;20079;-72
2022/01/29 05:03:15;;;;;;;73.03;34.58;;;7.10;99.90;;;;;;5095854;28;20150;-73
2022/01/29 05:05:41;;;;;;;75.03;39.10;;;7.10;99.90;;;;;;5095729;28;20051;-72
2022/01/29 05:08:07;;;;;;;73.97;36.28;;;7.10;99.90;;;;;;5095497;28;20434;-72
2022/01/29 05:10:33;;;;;;;71.85;36.92;;;7.20;99.90;;;;;;5095706;28;20047;-72
2022/01/29 05:13:09;;;;;;;70.60;34.85;;;7.20;99.90;;;;;;5095499;28;20050;-72
2022/01/29 05:28:57;;;;;;;59.55;31.20;;;7.30;99.90;;;;;;5095609;28;20185;-72
2022/01/29 05:31:23;;;;;;;54.40;31.58;;;7.30;99.90;;;;;;5094275;28;20139;-73
2022/01/29 05:33:48;;;;;;;55.80;29.30;;;7.30;99.90;;;;;;5095001;28;20040;-72
2022/01/29 05:36:14;;;;;;;55.15;29.27;;;7.40;99.90;;;;;;5095068;28;20392;-73
2022/01/29 05:38:39;;;;;;;54.58;30.92;;;7.40;99.90;;;;;;5095122;28;20400;-73
2022/01/29 05:41:05;;;;;;;49.65;31.95;;;7.40;99.90;;;;;;5094996;28;20472;-72
2022/01/29 05:43:32;;;;;;;47.30;28.50;;;7.50;99.90;;;;;;5095323;28;20472;-73
2022/01/29 05:45:58;;;;;;;49.70;29.10;;;7.40;99.90;;;;;;5094992;28;20051;-73
2022/01/29 05:48:23;;;;;;;45.07;26.27;;;7.50;99.90;;;;;;5094942;28;20044;-73
2022/01/29 05:50:49;;;;;;;51.75;29.38;;;7.50;99.90;;;;;;5094885;28;20085;-73
2022/01/29 05:53:15;;;;;;;50.28;28.52;;;7.50;99.90;;;;;;5095524;28;20100;-74
2022/01/29 05:55:40;;;;;;;42.25;26.30;;;7.50;99.90;;;;;;5093660;28;20083;-73
2022/01/29 05:58:06;;;;;;;47.15;25.45;;;7.50;99.90;;;;;;5094938;28;20426;-75
2022/01/29 06:00:32;;;;;;;49.40;27.00;;;7.60;99.90;;;;;;5094565;28;20148;-74
2022/01/29 06:03:05;;;;;;;43.00;25.80;;;7.60;99.90;;;;;;5094653;28;20048;-75
2022/01/29 06:05:31;;;;;;;46.15;25.63;;;7.60;99.90;;;;;;5094275;28;20506;-74
2022/01/29 06:07:57;;;;;;;48.05;25.70;;;7.60;99.90;;;;;;5094649;28;20082;-74
2022/01/29 06:10:24;;;;;;;46.72;26.85;;;7.60;99.90;;;;;;5094544;28;20415;-75
2022/01/29 06:13:00;;;;;;;39.03;25.38;;;7.60;99.90;;;;;;5093346;28;20040;-74
2022/01/29 06:15:25;;;;;;;47.70;26.42;;;7.70;99.90;;;;;;5094214;28;20040;-75
2022/01/29 06:17:51;;;;;;;43.38;25.10;;;7.70;99.90;;;;;;5094347;28;20048;-74
2022/01/29 06:20:17;;;;;;;42.45;28.35;;;7.70;99.90;;;;;;5094281;28;20051;-72
2022/01/29 06:22:42;;;;;;;49.40;25.35;;;7.70;99.90;;;;;;5094721;28;20048;-73
2022/01/29 06:25:08;;;;;;;41.63;24.65;;;8.00;99.90;;;;;;5076332;28;20040;-77
2022/01/29 06:27:34;;;;;;;44.17;26.27;;;7.70;99.90;;;;;;5094285;28;20122;-72
2022/01/29 06:30:00;;;;;;;39.08;25.30;;;7.70;99.90;;;;;;5093785;28;20278;-73
2022/01/29 06:32:25;;;;;;;41.55;24.63;;;7.70;99.90;;;;;;5094146;28;20081;-74
2022/01/29 06:34:51;;;;;;;42.50;25.52;;;7.80;99.90;;;;;;5094115;28;20044;-72
2022/01/29 06:37:19;;;;;;;40.85;25.92;;;7.80;99.90;;;;;;5093993;28;20047;-73
2022/01/29 06:39:45;;;;;;;43.67;24.35;;;7.80;99.90;;;;;;5094008;28;20044;-73
2022/01/29 06:42:10;;;;;;;39.97;24.67;;;7.80;99.90;;;;;;5093190;28;20051;-72
2022/01/29 06:44:36;;;;;;;37.22;23.35;;;7.80;99.90;;;;;;5092881;28;20054;-74
2022/01/29 06:47:02;;;;;;;38.58;23.42;;;7.80;99.90;;;;;;5091653;28;20044;-73
2022/01/29 06:49:27;;;;;;;41.55;25.02;;;7.80;99.90;;;;;;5093281;28;20044;-73
2022/01/29 06:51:53;;;;;;;35.70;23.75;;;7.90;99.90;;;;;;5093163;28;20388;-73
2022/01/29 06:54:19;;;;;;;36.25;23.30;;;7.90;99.90;;;;;;5093917;28;20534;-72
2022/01/29 06:56:45;;;;;;;39.67;24.08;;;7.90;99.90;;;;;;5094089;28;20048;-72
2022/01/29 06:59:11;;;;;;;33.83;22.73;;;7.90;99.90;;;;;;5093714;28;20094;-72
2022/01/29 07:01:37;;;;;;;37.72;23.30;;;7.90;99.90;;;;;;5092974;28;20047;-72
2022/01/29 07:04:02;;;;;;;37.08;24.33;;;8.00;99.90;;;;;;5093821;28;20087;-75
2022/01/29 07:06:28;;;;;;;39.25;23.55;;;7.90;99.90;;;;;;5093733;28;20083;-73
2022/01/29 07:08:54;;;;;;;37.80;22.33;;;7.90;99.90;;;;;;5092576;28;20047;-73
2022/01/29 07:11:22;;;;;;;34.72;23.42;;;7.90;99.90;;;;;;5093714;28;20044;-73
2022/01/29 07:13:49;;;;;;;32.92;21.42;;;7.90;99.90;;;;;;5093675;28;20093;-72
2022/01/29 07:16:14;;;;;;;34.45;22.15;;;7.90;99.90;;;;;;5093724;28;20048;-73
2022/01/29 07:18:40;;;;;;;36.35;22.40;;;8.00;99.90;;;;;;5093592;28;20063;-73
2022/01/29 07:21:06;;;;;;;34.40;21.55;;;7.90;99.90;;;;;;5093545;28;20062;-73
2022/01/29 07:23:31;;;;;;;33.45;21.60;;;8.00;99.90;;;;;;5094003;28;20121;-72
2022/01/29 07:25:57;;;;;;;34.67;21.52;;;8.00;99.90;;;;;;5093576;28;20040;-72
2022/01/29 07:28:25;;;;;;;32.70;21.45;;;7.90;99.90;;;;;;5093621;28;20036;-72
2022/01/29 07:30:52;;;;;;;31.52;20.55;;;8.00;99.90;;;;;;5093537;28;20090;-72
2022/01/29 07:33:17;;;;;;;30.80;20.40;;;8.00;99.90;;;;;;5093471;28;20123;-76
2022/01/29 07:35:43;;;;;;;31.42;21.35;;;8.00;99.90;;;;;;5093941;28;20515;-73
2022/01/29 07:38:12;;;;;;;33.88;19.25;;;8.00;99.90;;;;;;5093408;28;20400;-72
2022/01/29 07:40:38;;;;;;;32.38;20.33;;;8.00;99.90;;;;;;5093456;28;20079;-72
2022/01/29 07:43:03;;;;;;;32.55;19.80;;;8.00;99.90;;;;;;5095724;28;20090;-72
2022/01/29 07:45:29;;;;;;;32.15;19.38;;;8.00;99.90;;;;;;5097184;28;20044;-73
2022/01/29 07:47:55;;;;;;;31.08;20.83;;;8.10;99.90;;;;;;5097186;28;20043;-73
2022/01/29 07:50:21;;;;;;;27.98;17.70;;;8.10;99.90;;;;;;5096909;28;20408;-72
2022/01/29 07:52:46;;;;;;;26.52;18.48;;;8.10;99.90;;;;;;5096998;28;20048;-73
2022/01/29 07:55:12;;;;;;;33.97;19.55;;;8.10;99.90;;;;;;5097148;28;20404;-73
2022/01/29 07:57:37;;;;;;;30.75;19.08;;;8.10;99.90;;;;;;5097095;28;20179;-73
2022/01/29 08:00:04;;;;;;;27.23;18.48;;;8.10;99.90;;;;;;5096958;28;20055;-73
2022/01/29 08:02:29;;;;;;;32.20;19.00;;;8.10;99.90;;;;;;5096857;28;20399;-72
2022/01/29 08:04:55;;;;;;;30.40;19.05;;;8.10;99.90;;;;;;5096988;28;20037;-72
2022/01/29 08:07:20;;;;;;;31.02;19.65;;;8.10;99.90;;;;;;5096942;28;20481;-72
2022/01/29 08:09:46;;;;;;;33.80;19.55;;;8.10;99.90;;;;;;5096833;28;20048;-72
2022/01/29 08:12:12;;;;;;;32.90;19.33;;;8.10;99.90;;;;;;5096897;28;20062;-72
2022/01/29 08:14:37;;;;;;;34.78;19.17;;;8.20;99.90;;;;;;5096768;28;20448;-72
2022/01/29 08:17:03;;;;;;;31.38;18.10;;;8.20;99.90;;;;;;5096668;28;20134;-72
2022/01/29 08:19:29;;;;;;;31.70;18.58;;;8.20;99.90;;;;;;5096575;28;20136;-73
2022/01/29 08:21:57;;;;;;;35.25;19.77;;;8.20;99.90;;;;;;5095632;28;20044;-73
2022/01/29 08:24:22;;;;;;;35.20;21.40;;;8.20;99.90;;;;;;5096532;28;20044;-73
2022/01/29 08:26:48;;;;;;;31.08;19.02;;;8.20;99.90;;;;;;5096561;28;20133;-73
2022/01/29 08:29:14;;;;;;;33.65;20.17;;;8.20;99.90;;;;;;5096591;28;20036;-73
2022/01/29 08:31:39;;;;;;;24.90;18.63;;;8.20;99.90;;;;;;5096443;28;20127;-73
2022/01/29 08:34:05;;;;;;;29.27;18.00;;;8.20;99.90;;;;;;5096052;28;20503;-73
2022/01/29 08:36:31;;;;;;;34.03;17.27;;;8.70;99.90;;;;;;5096466;28;20503;-73
2022/01/29 08:38:56;;;;;;;28.58;17.63;;;8.30;99.90;;;;;;5094611;28;20052;-73
2022/01/29 08:41:22;;;;;;;26.05;18.00;;;8.30;99.90;;;;;;5096190;28;20044;-76
2022/01/29 08:43:47;;;;;;;27.92;17.67;;;8.30;99.90;;;;;;5096290;28;20042;-74
2022/01/29 08:46:13;;;;;;;25.08;16.77;;;8.30;99.90;;;;;;5095213;28;20472;-73
2022/01/29 08:48:38;;;;;;;28.20;17.50;;;8.40;99.90;;;;;;5095959;28;20070;-73
2022/01/29 08:51:04;;;;;;;30.35;17.30;;;8.40;99.90;;;;;;5096704;28;20036;-74
2022/01/29 08:53:31;;;;;;;28.20;15.27;;;8.40;99.90;;;;;;5095711;28;20058;-74
2022/01/29 08:55:56;;;;;;;25.30;15.00;;;8.40;99.90;;;;;;5095738;28;20553;-73
2022/01/29 08:58:22;;;;;;;23.33;15.30;;;8.40;99.90;;;;;;5095900;28;20044;-73
2022/01/29 09:00:48;;;;;;;24.05;15.00;;;8.40;99.90;;;;;;5095772;28;20052;-73
2022/01/29 09:03:16;;;;;;;23.40;14.55;;;8.50;99.90;;;;;;5095887;28;20498;-73
2022/01/29 09:05:43;;;;;;;21.38;14.23;;;8.50;99.90;;;;;;5095781;28;20044;-74
2022/01/29 09:08:09;;;;;;;22.73;13.35;;;8.50;99.90;;;;;;5095745;28;20040;-73
2022/01/29 09:10:35;;;;;;;20.00;13.18;;;8.50;99.90;;;;;;5095674;28;20047;-73
2022/01/29 09:13:03;;;;;;;24.20;13.75;;;8.60;99.90;;;;;;5094763;28;20502;-74
2022/01/29 09:15:29;;;;;;;21.63;13.00;;;8.60;99.90;;;;;;5095641;28;20122;-74
2022/01/29 09:17:55;;;;;;;20.90;13.38;;;8.60;99.90;;;;;;5095465;28;20087;-73
2022/01/29 09:20:20;;;;;;;20.42;12.60;;;8.60;99.90;;;;;;5095847;28;20043;-74
2022/01/29 09:22:46;;;;;;;19.77;12.82;;;8.70;99.90;;;;;;5095453;28;20044;-73
2022/01/29 09:25:12;;;;;;;21.13;12.55;;;8.70;99.90;;;;;;5095383;28;20105;-73
2022/01/29 09:27:40;;;;;;;21.60;12.98;;;8.70;99.90;;;;;;5095341;28;20036;-73
2022/01/29 09:30:07;;;;;;;21.45;11.95;;;8.70;99.90;;;;;;5094067;28;20090;-74
2022/01/29 09:32:33;;;;;;;;;;;8.70;99.90;;;;;;5095566;28;20043;-73
2022/01/29 09:34:58;;;;;;;20.42;11.82;;;8.70;99.90;;;;;;5095205;28;19981;-73
2022/01/29 09:37:24;;;;;;;18.40;11.82;;;8.70;99.90;;;;;;5095181;28;20047;-73
2022/01/29 09:39:52;;;;;;;16.88;11.65;;;8.70;99.90;;;;;;5094764;28;20036;-74
2022/01/29 09:42:18;;;;;;;18.25;12.02;;;8.70;99.90;;;;;;5095256;28;20040;-73
2022/01/29 09:44:46;;;;;;;15.57;11.50;;;8.70;99.90;;;;;;5095139;28;20040;-73
2022/01/29 09:47:12;;;;;;;22.08;11.10;;;8.80;99.90;;;;;;5094650;28;20044;-73
2022/01/29 09:49:38;;;;;;;18.48;12.10;;;8.80;99.90;;;;;;5094955;28;20032;-73
2022/01/29 09:52:04;;;;;;;17.42;10.57;;;8.80;99.90;;;;;;5095241;28;20043;-73
2022/01/29 09:54:30;;;;;;;14.30;11.25;;;8.80;99.90;;;;;;5094940;28;20044;-73
2022/01/29 09:56:55;;;;;;;17.55;11.82;;;8.90;99.90;;;;;;5094939;28;20040;-73
2022/01/29 09:59:21;;;;;;;13.98;10.70;;;8.90;99.90;;;;;;5094740;28;20059;-73
2022/01/29 10:01:47;;;;;;;17.43;10.83;;;8.90;99.90;;;;;;5094581;28;20056;-73
2022/01/29 10:04:12;;;;;;;13.82;10.13;;;9.00;99.90;;;;;;5094318;28;20044;-73
2022/01/29 10:06:42;;;;;;;16.77;9.88;;;9.00;99.90;;;;;;5094571;28;20044;-73
2022/01/29 10:09:11;;;;;;;16.58;10.43;;;9.10;99.90;;;;;;5094593;28;20040;-73
2022/01/29 10:11:38;;;;;;;13.80;10.40;;;9.10;99.90;;;;;;5094498;28;20377;-73
2022/01/29 10:14:05;;;;;;;14.27;9.60;;;9.10;99.90;;;;;;5094446;28;20047;-74
2022/01/29 10:16:33;;;;;;;13.38;9.10;;;9.10;99.90;;;;;;5094410;28;20079;-74
2022/01/29 10:19:11;;;;;;;16.40;9.60;;;9.20;99.90;;;;;;5094033;28;20087;-74
2022/01/29 10:21:43;;;;;;;;;;;9.20;99.90;;;;;;5094729;28;20480;-74
2022/01/29 10:24:12;;;;;;;15.02;8.93;;;9.20;99.90;;;;;;5094323;28;19920;-74
2022/01/29 10:26:40;;;;;;;15.32;8.80;;;9.20;99.90;;;;;;5094172;28;20131;-74
2022/01/29 10:29:08;;;;;;;16.60;9.65;;;9.20;99.90;;;;;;5094672;28;20040;-73
2022/01/29 10:31:49;;;;;;;11.90;7.88;;;9.20;99.90;;;;;;5094127;28;20036;-73
2022/01/29 10:34:22;;;;;;;15.70;8.90;;;9.30;99.90;;;;;;5094143;28;20446;-74
2022/01/29 10:37:15;;;;;;;12.10;8.35;;;9.20;99.90;;;;;;5094118;28;20048;-73
2022/01/29 10:39:47;;;;;;;13.02;8.13;;;9.30;99.90;;;;;;5094411;28;20048;-74
2022/01/29 10:42:20;;;;;;;13.85;8.68;;;9.30;99.90;;;;;;5094227;28;20055;-74
2022/01/29 10:44:51;;;;;;;13.20;8.57;;;9.30;99.90;;;;;;5094348;28;20044;-74
2022/01/29 10:47:17;;;;;;;11.30;7.47;;;9.30;99.90;;;;;;5094125;28;20044;-73
2022/01/29 10:49:55;;;;;;;13.03;7.73;;;9.40;99.90;;;;;;5093901;28;20040;-73
2022/01/29 10:52:47;;;;;;;12.07;7.30;;;9.40;99.90;;;;;;5093769;28;20109;-74
2022/01/29 10:55:13;;;;;;;15.18;7.15;;;9.40;99.90;;;;;;5089473;28;20058;-74
2022/01/29 10:57:44;;;;;;;14.02;7.43;;;9.40;99.90;;;;;;5092916;28;20391;-73
2022/01/29 11:00:25;;;;;;;11.23;6.60;;;9.40;99.90;;;;;;5092537;28;20048;-73
2022/01/29 11:02:54;;;;;;;11.90;6.65;;;9.40;99.90;;;;;;5093443;28;20069;-73
2022/01/29 11:05:24;;;;;;;11.43;6.00;;;9.50;99.90;;;;;;5093652;28;20079;-74
2022/01/29 11:07:52;;;;;;;12.82;5.55;;;9.50;99.90;;;;;;5093734;28;20075;-74
2022/01/29 11:10:19;;;;;;;9.43;5.75;;;9.60;99.90;;;;;;5093786;28;20040;-73
2022/01/29 11:12:46;;;;;;;11.27;5.70;;;9.60;99.90;;;;;;5093599;28;20069;-74
2022/01/29 11:15:15;;;;;;;7.97;5.53;;;9.60;99.90;;;;;;5093577;28;20059;-74
2022/01/29 11:17:43;;;;;;;11.93;5.70;;;9.60;99.90;;;;;;5097417;28;20125;-74
2022/01/29 11:20:10;;;;;;;9.68;5.28;;;9.70;99.90;;;;;;5095958;28;20047;-74
2022/01/29 11:22:39;;;;;;;10.57;4.90;;;9.70;99.90;;;;;;5097626;28;20480;-74
2022/01/29 11:25:11;;;;;;;12.48;5.47;;;9.70;99.90;;;;;;5097823;28;20040;-74
2022/01/29 11:27:38;;;;;;;12.63;4.82;;;9.80;99.90;;;;;;5097686;28;20090;-74
2022/01/29 11:30:09;;;;;;;8.93;4.65;;;9.90;99.90;;;;;;5097623;28;20050;-74
2022/01/29 11:32:46;;;;;;;11.57;4.45;;;9.90;99.90;;;;;;5097474;28;20407;-73
2022/01/29 11:35:31;;;;;;;9.45;4.50;;;9.90;99.90;;;;;;5097414;28;20051;-75
2022/01/29 11:38:02;;;;;;;9.00;4.13;;;10.00;99.90;;;;;;5097079;28;20055;-74
2022/01/29 11:40:39;;;;;;;9.02;4.05;;;10.00;99.90;;;;;;5097138;28;20047;-75
2022/01/29 11:43:14;;;;;;;8.00;3.80;;;9.90;99.90;;;;;;5097530;28;20043;-74
2022/01/29 11:46:06;;;;;;;10.50;3.80;;;9.90;99.90;;;;;;5096985;28;20399;-74
2022/01/29 11:48:34;;;;;;;8.65;3.20;;;9.90;99.90;;;;;;5096851;28;20052;-73
2022/01/29 11:51:10;;;;;;;7.60;3.20;;;9.90;99.90;;;;;;5097229;28;20051;-74
2022/01/29 11:53:44;;;;;;;7.57;3.17;;;10.00;99.90;;;;;;5097000;28;20044;-74
2022/01/29 11:56:40;;;;;;;9.82;3.13;;;10.00;99.90;;;;;;5096985;28;20051;-74
2022/01/29 11:59:24;;;;;;;7.88;3.22;;;10.10;99.90;;;;;;5095699;28;20056;-74
2022/01/29 12:01:57;;;;;;;7.65;3.60;;;10.00;99.90;;;;;;5096840;28;20109;-74
2022/01/29 12:04:44;;;;;;;8.93;3.03;;;10.10;99.90;;;;;;5096986;28;20476;-74
2022/01/29 12:09:51;;;;;;;13.30;3.40;;;10.20;99.90;;;;;;5097193;28;20056;-75
2022/01/29 12:12:19;;;;;;;8.98;3.30;;;10.20;99.90;;;;;;5094143;28;20510;-74
2022/01/29 12:14:48;;;;;;;7.68;2.60;;;10.20;99.90;;;;;;5096631;28;20044;-74
2022/01/29 12:17:49;;;;;;;6.57;2.45;;;10.30;99.90;;;;;;5096682;28;20392;-75
2022/01/29 12:20:22;;;;;;;6.38;2.40;;;10.30;99.90;;;;;;5097077;28;20440;-74
2022/01/29 12:22:50;;;;;;;8.18;2.83;;;10.30;99.90;;;;;;5096661;28;20040;-74
2022/01/29 12:25:19;;;;;;;9.13;2.58;;;10.40;99.90;;;;;;5096534;28;20434;-74
2022/01/29 12:27:50;;;;;;;10.80;2.83;;;10.40;99.90;;;;;;5095879;28;20044;-73
2022/01/29 12:30:23;;;;;;;7.43;2.40;;;10.40;99.90;;;;;;5096416;28;20055;-73
2022/01/29 12:33:05;;;;;;;11.93;2.95;;;10.50;99.90;;;;;;5096514;28;20059;-73
2022/01/29 12:35:36;;;;;;;8.45;2.75;;;10.50;99.90;;;;;;5096730;28;20047;-73
2022/01/29 12:38:21;;;;;;;5.25;2.15;;;10.60;99.90;;;;;;5096458;28;20484;-73
2022/01/29 12:40:58;;;;;;;8.75;2.60;;;10.60;99.90;;;;;;5096237;28;20479;-73
2022/01/29 12:43:28;;;;;;;7.20;2.57;;;10.60;99.90;;;;;;5096339;28;20040;-74
2022/01/29 12:45:55;;;;;;;10.07;2.28;;;10.60;99.90;;;;;;5096359;28;20286;-73
2022/01/29 12:48:21;;;;;;;7.30;2.70;;;10.60;99.90;;;;;;5095563;28;20052;-73
2022/01/29 12:50:47;;;;;;;10.68;2.72;;;10.60;99.90;;;;;;5095834;28;20510;-73
2022/01/29 12:53:20;;;;;;;11.63;2.65;;;10.50;99.90;;;;;;5096019;28;20044;-73
2022/01/29 12:56:03;;;;;;;11.10;2.60;;;10.50;99.90;;;;;;5096014;28;20086;-73
2022/01/29 12:58:31;;;;;;;10.07;2.70;;;10.60;99.90;;;;;;5095927;28;20400;-73
2022/01/29 13:01:03;;;;;;;7.90;2.55;;;10.50;99.90;;;;;;5095938;28;20067;-73